sensor_id;sensor_type;location;lat;lon;timestamp;P1;durP1;ratioP1;P2;durP2;ratioP2
42092;SDS011;28974;50.316;18.960;2022-12-07T00:09:36;78.55;;;30.27;;
42092;SDS011;28974;50.316;18.960;2022-12-07T00:21:37;72.88;;;30.65;;
42092;SDS011;28974;50.316;18.960;2022-12-07T00:33:38;68.40;;;28.37;;
42092;SDS011;28974;50.316;18.960;2022-12-07T00:45:38;70.63;;;26.27;;
42092;SDS011;28974;50.316;18.960;2022-12-07T00:57:39;64.68;;;27.00;;
42092;SDS011;28974;50.316;18.960;2022-12-07T01:09:39;69.28;;;29.25;;
42092;SDS011;28974;50.316;18.960;2022-12-07T01:21:39;64.25;;;28.70;;
42092;SDS011;28974;50.316;18.960;2022-12-07T01:33:40;59.42;;;29.58;;
42092;SDS011;28974;50.316;18.960;2022-12-07T01:45:41;70.07;;;29.52;;
42092;SDS011;28974;50.316;18.960;2022-12-07T01:57:43;71.80;;;30.73;;
42092;SDS011;28974;50.316;18.960;2022-12-07T02:09:45;70.90;;;30.85;;
42092;SDS011;28974;50.316;18.960;2022-12-07T02:21:47;81.28;;;33.47;;
42092;SDS011;28974;50.316;18.960;2022-12-07T02:46:30;103.68;;;38.80;;
42092;SDS011;28974;50.316;18.960;2022-12-07T03:10:53;82.53;;;33.00;;
42092;SDS011;28974;50.316;18.960;2022-12-07T03:22:54;87.28;;;35.70;;
42092;SDS011;28974;50.316;18.960;2022-12-07T03:34:57;88.57;;;34.67;;
42092;SDS011;28974;50.316;18.960;2022-12-07T03:59:10;74.78;;;30.63;;
42092;SDS011;28974;50.316;18.960;2022-12-07T04:11:11;82.30;;;33.38;;
42092;SDS011;28974;50.316;18.960;2022-12-07T04:23:11;76.78;;;28.48;;
42092;SDS011;28974;50.316;18.960;2022-12-07T04:35:11;60.47;;;25.02;;
42092;SDS011;28974;50.316;18.960;2022-12-07T04:47:12;66.43;;;26.98;;
42092;SDS011;28974;50.316;18.960;2022-12-07T04:59:12;61.15;;;25.85;;
42092;SDS011;28974;50.316;18.960;2022-12-07T05:11:13;63.78;;;24.20;;
42092;SDS011;28974;50.316;18.960;2022-12-07T05:23:34;49.97;;;20.42;;
42092;SDS011;28974;50.316;18.960;2022-12-07T05:35:34;44.85;;;20.83;;
42092;SDS011;28974;50.316;18.960;2022-12-07T05:47:35;50.45;;;19.50;;
42092;SDS011;28974;50.316;18.960;2022-12-07T05:59:37;37.60;;;17.45;;
42092;SDS011;28974;50.316;18.960;2022-12-07T06:11:37;49.30;;;19.85;;
42092;SDS011;28974;50.316;18.960;2022-12-07T06:23:56;56.95;;;22.33;;
42092;SDS011;28974;50.316;18.960;2022-12-07T06:35:56;82.70;;;30.00;;
42092;SDS011;28974;50.316;18.960;2022-12-07T06:47:57;77.72;;;29.67;;
42092;SDS011;28974;50.316;18.960;2022-12-07T06:59:57;63.30;;;27.95;;
42092;SDS011;28974;50.316;18.960;2022-12-07T07:11:57;57.65;;;24.23;;
42092;SDS011;28974;50.316;18.960;2022-12-07T07:23:58;71.50;;;28.63;;
42092;SDS011;28974;50.316;18.960;2022-12-07T07:35:58;78.43;;;30.60;;
42092;SDS011;28974;50.316;18.960;2022-12-07T07:47:58;88.00;;;34.42;;
42092;SDS011;28974;50.316;18.960;2022-12-07T08:00:00;74.18;;;30.40;;
42092;SDS011;28974;50.316;18.960;2022-12-07T08:12:00;76.78;;;29.88;;
42092;SDS011;28974;50.316;18.960;2022-12-07T08:24:01;79.03;;;29.20;;
42092;SDS011;28974;50.316;18.960;2022-12-07T08:36:02;73.30;;;30.80;;
42092;SDS011;28974;50.316;18.960;2022-12-07T08:48:07;67.20;;;25.85;;
42092;SDS011;28974;50.316;18.960;2022-12-07T09:00:08;67.70;;;26.15;;
42092;SDS011;28974;50.316;18.960;2022-12-07T09:12:09;80.30;;;35.23;;
42092;SDS011;28974;50.316;18.960;2022-12-07T09:24:11;73.15;;;32.72;;
42092;SDS011;28974;50.316;18.960;2022-12-07T09:36:11;72.40;;;31.45;;
42092;SDS011;28974;50.316;18.960;2022-12-07T09:48:21;86.82;;;32.38;;
42092;SDS011;28974;50.316;18.960;2022-12-07T10:00:23;110.03;;;47.50;;
42092;SDS011;28974;50.316;18.960;2022-12-07T10:12:23;109.82;;;47.17;;
42092;SDS011;28974;50.316;18.960;2022-12-07T10:24:32;104.10;;;45.58;;
42092;SDS011;28974;50.316;18.960;2022-12-07T10:36:37;102.10;;;45.72;;
42092;SDS011;28974;50.316;18.960;2022-12-07T11:25:18;62.60;;;31.45;;
42092;SDS011;28974;50.316;18.960;2022-12-07T11:37:21;58.40;;;27.73;;
42092;SDS011;28974;50.316;18.960;2022-12-07T11:49:40;62.72;;;27.65;;
42092;SDS011;28974;50.316;18.960;2022-12-07T12:13:56;43.25;;;19.40;;
42092;SDS011;28974;50.316;18.960;2022-12-07T12:26:02;35.00;;;18.40;;
42092;SDS011;28974;50.316;18.960;2022-12-07T12:50:24;52.70;;;24.65;;
42092;SDS011;28974;50.316;18.960;2022-12-07T13:14:37;45.08;;;23.38;;
42092;SDS011;28974;50.316;18.960;2022-12-07T13:26:42;49.05;;;21.60;;
42092;SDS011;28974;50.316;18.960;2022-12-07T13:38:48;38.55;;;17.13;;
42092;SDS011;28974;50.316;18.960;2022-12-07T13:50:52;29.90;;;15.45;;
42092;SDS011;28974;50.316;18.960;2022-12-07T14:14:56;35.20;;;17.48;;
42092;SDS011;28974;50.316;18.960;2022-12-07T14:26:56;32.20;;;15.43;;
42092;SDS011;28974;50.316;18.960;2022-12-07T14:38:57;33.35;;;14.73;;
42092;SDS011;28974;50.316;18.960;2022-12-07T14:50:59;39.38;;;18.63;;
42092;SDS011;28974;50.316;18.960;2022-12-07T15:02:59;51.67;;;20.52;;
42092;SDS011;28974;50.316;18.960;2022-12-07T15:15:00;49.08;;;20.25;;
42092;SDS011;28974;50.316;18.960;2022-12-07T15:27:01;43.22;;;19.42;;
42092;SDS011;28974;50.316;18.960;2022-12-07T15:39:02;46.20;;;19.05;;
42092;SDS011;28974;50.316;18.960;2022-12-07T15:51:03;44.38;;;19.08;;
42092;SDS011;28974;50.316;18.960;2022-12-07T16:03:03;43.60;;;17.15;;
42092;SDS011;28974;50.316;18.960;2022-12-07T16:15:04;24.13;;;11.52;;
42092;SDS011;28974;50.316;18.960;2022-12-07T16:27:04;64.75;;;28.17;;
42092;SDS011;28974;50.316;18.960;2022-12-07T16:39:05;65.50;;;28.00;;
42092;SDS011;28974;50.316;18.960;2022-12-07T16:51:06;68.60;;;29.98;;
42092;SDS011;28974;50.316;18.960;2022-12-07T17:03:07;86.45;;;34.38;;
42092;SDS011;28974;50.316;18.960;2022-12-07T17:15:08;80.10;;;34.35;;
42092;SDS011;28974;50.316;18.960;2022-12-07T17:27:17;110.22;;;41.03;;
42092;SDS011;28974;50.316;18.960;2022-12-07T17:39:18;113.00;;;48.22;;
42092;SDS011;28974;50.316;18.960;2022-12-07T17:51:18;124.53;;;48.67;;
42092;SDS011;28974;50.316;18.960;2022-12-07T18:03:37;96.55;;;39.05;;
42092;SDS011;28974;50.316;18.960;2022-12-07T18:15:38;77.32;;;35.60;;
42092;SDS011;28974;50.316;18.960;2022-12-07T18:27:38;88.30;;;33.28;;
42092;SDS011;28974;50.316;18.960;2022-12-07T18:39:40;59.40;;;24.42;;
42092;SDS011;28974;50.316;18.960;2022-12-07T18:51:40;99.43;;;41.60;;
42092;SDS011;28974;50.316;18.960;2022-12-07T19:03:41;83.68;;;32.42;;
42092;SDS011;28974;50.316;18.960;2022-12-07T19:15:41;87.30;;;38.60;;
42092;SDS011;28974;50.316;18.960;2022-12-07T19:27:41;77.25;;;27.55;;
42092;SDS011;28974;50.316;18.960;2022-12-07T19:39:42;57.10;;;22.42;;
42092;SDS011;28974;50.316;18.960;2022-12-07T19:51:48;55.55;;;22.70;;
42092;SDS011;28974;50.316;18.960;2022-12-07T20:03:49;59.05;;;24.50;;
42092;SDS011;28974;50.316;18.960;2022-12-07T20:15:49;47.15;;;19.65;;
42092;SDS011;28974;50.316;18.960;2022-12-07T20:27:49;61.92;;;26.83;;
42092;SDS011;28974;50.316;18.960;2022-12-07T20:39:49;58.72;;;22.40;;
42092;SDS011;28974;50.316;18.960;2022-12-07T20:51:50;84.70;;;33.38;;
42092;SDS011;28974;50.316;18.960;2022-12-07T21:03:54;88.00;;;33.97;;
42092;SDS011;28974;50.316;18.960;2022-12-07T21:15:54;84.95;;;35.88;;
42092;SDS011;28974;50.316;18.960;2022-12-07T21:27:54;82.60;;;35.63;;
42092;SDS011;28974;50.316;18.960;2022-12-07T21:39:54;92.18;;;38.67;;
42092;SDS011;28974;50.316;18.960;2022-12-07T21:51:55;129.15;;;49.78;;
42092;SDS011;28974;50.316;18.960;2022-12-07T22:03:56;111.68;;;39.20;;
42092;SDS011;28974;50.316;18.960;2022-12-07T22:15:56;103.47;;;37.20;;
42092;SDS011;28974;50.316;18.960;2022-12-07T22:27:56;87.65;;;31.08;;
42092;SDS011;28974;50.316;18.960;2022-12-07T22:39:57;79.18;;;27.83;;
42092;SDS011;28974;50.316;18.960;2022-12-07T22:51:57;88.15;;;36.40;;
42092;SDS011;28974;50.316;18.960;2022-12-07T23:03:57;59.80;;;22.27;;
42092;SDS011;28974;50.316;18.960;2022-12-07T23:15:58;64.72;;;26.42;;
42092;SDS011;28974;50.316;18.960;2022-12-07T23:27:59;73.05;;;28.45;;
42092;SDS011;28974;50.316;18.960;2022-12-07T23:39:59;58.05;;;21.13;;
42092;SDS011;28974;50.316;18.960;2022-12-07T23:51:59;56.05;;;21.52;;
